Time;durP1;ratioP1;P1;durP2;ratioP2;P2;SDS_P1;SDS_P2;PMS_P1;PMS_P2;Temp;Humidity;BMP_temperature;BMP_pressure;BME280_temperature;BME280_humidity;BME280_pressure;Samples;Min_cycle;Max_cycle;Signal;HPM_P1;HPM_P2
2022/11/05 00:20:14;;;;;;;5.00;3.45;;;5.90;99.90;;;;;;8344271;28;20103;-83
2022/11/05 00:28:34;;;;;;;4.07;3.28;;;6.00;99.90;;;;;;8350689;28;20036;-83
2022/11/05 00:32:48;;;;;;;4.75;3.40;;;6.10;99.90;;;;;;8396867;23;20532;-83
2022/11/05 00:36:48;;;;;;;5.28;3.33;;;5.90;99.90;;;;;;8345950;28;20025;-83
2022/11/05 00:40:55;;;;;;;4.95;3.45;;;6.00;99.90;;;;;;8346833;28;20485;-83
2022/11/05 00:45:01;;;;;;;4.88;3.63;;;6.00;99.90;;;;;;8350213;28;20052;-83
2022/11/05 00:49:29;;;;;;;4.35;3.22;;;6.00;99.90;;;;;;8349200;28;20036;-83
2022/11/05 00:53:38;;;;;;;6.38;3.70;;;6.00;99.90;;;;;;8342982;28;20113;-82
2022/11/05 00:57:39;;;;;;;5.88;3.63;;;6.10;99.90;;;;;;8348789;28;20459;-83
2022/11/05 01:01:39;;;;;;;6.95;3.53;;;6.20;99.90;;;;;;8345946;28;20040;-84
2022/11/05 01:05:42;;;;;;;4.70;3.35;;;6.20;99.90;;;;;;8345612;28;20079;-83
2022/11/05 01:09:43;;;;;;;6.57;3.80;;;6.30;99.90;;;;;;8345216;28;20021;-84
2022/11/05 01:13:46;;;;;;;6.50;3.60;;;6.30;99.90;;;;;;8348321;28;20442;-84
2022/11/05 01:18:09;;;;;;;6.13;3.70;;;6.30;99.90;;;;;;8352233;28;20032;-84
2022/11/05 01:22:11;;;;;;;6.65;3.80;;;6.30;99.90;;;;;;8333694;28;20032;-84
2022/11/05 01:26:15;;;;;;;5.22;3.70;;;6.30;99.90;;;;;;8345159;28;21097;-84
2022/11/05 01:30:16;;;;;;;7.50;3.75;;;6.30;99.90;;;;;;8354122;28;20029;-84
2022/11/05 01:34:17;;;;;;;6.05;3.58;;;6.40;99.90;;;;;;8343339;28;20086;-84
2022/11/05 01:38:20;;;;;;;4.47;3.55;;;6.40;99.90;;;;;;8333600;28;20511;-84
2022/11/05 01:42:31;;;;;;;5.22;3.63;;;6.40;99.90;;;;;;8340094;28;20401;-83
2022/11/05 01:46:41;;;;;;;4.43;3.13;;;6.30;99.90;;;;;;8352525;28;20136;-83
2022/11/05 01:50:56;;;;;;;3.80;3.28;;;6.50;99.90;;;;;;8347123;28;20021;-83
2022/11/05 01:54:57;;;;;;;5.22;3.83;;;6.40;99.90;;;;;;8346572;28;20060;-84
2022/11/05 01:59:10;;;;;;;6.22;3.42;;;6.50;99.90;;;;;;8346514;28;20118;-84
2022/11/05 02:03:13;;;;;;;6.93;3.70;;;6.60;99.90;;;;;;8346014;28;20017;-84
2022/11/05 02:07:14;;;;;;;4.47;3.33;;;6.60;99.90;;;;;;8343322;28;20035;-84
2022/11/05 02:11:17;;;;;;;9.10;4.00;;;6.60;99.90;;;;;;8351570;28;20025;-84
2022/11/05 02:15:33;;;;;;;6.28;4.07;;;6.50;99.90;;;;;;8339368;28;20037;-84
2022/11/05 02:19:55;;;;;;;6.00;3.72;;;6.50;99.90;;;;;;8341597;28;20056;-84
2022/11/05 02:24:17;;;;;;;6.28;3.40;;;6.70;99.90;;;;;;8352677;28;20104;-84
2022/11/05 02:28:45;;;;;;;6.45;3.63;;;6.60;99.90;;;;;;8350401;28;20029;-84
2022/11/05 02:33:09;;;;;;;8.27;3.70;;;6.50;99.90;;;;;;8337397;28;20498;-84
2022/11/05 02:37:22;;;;;;;4.90;3.30;;;6.60;99.90;;;;;;8351943;28;20017;-84
2022/11/05 02:41:33;;;;;;;6.97;3.95;;;6.60;99.90;;;;;;8360547;28;20025;-84
2022/11/05 02:45:53;;;;;;;6.20;3.95;;;6.60;99.90;;;;;;8359739;28;20536;-84
2022/11/05 02:50:22;;;;;;;5.95;3.58;;;6.80;99.90;;;;;;8339338;28;20017;-84
2022/11/05 02:54:56;;;;;;;5.57;3.47;;;6.80;99.90;;;;;;8349404;28;20021;-84
2022/11/05 02:59:06;;;;;;;7.05;4.07;;;6.90;99.90;;;;;;8344517;28;20498;-84
2022/11/05 03:03:21;;;;;;;9.43;4.40;;;6.70;99.90;;;;;;8348616;28;20394;-84
2022/11/05 03:07:34;;;;;;;5.82;3.80;;;6.90;99.90;;;;;;8346966;28;20532;-84
2022/11/05 03:12:00;;;;;;;5.80;4.32;;;6.90;99.90;;;;;;8350357;28;20477;-84
2022/11/05 03:16:25;;;;;;;8.65;4.22;;;7.00;99.90;;;;;;8359586;28;20397;-84
2022/11/05 03:20:31;;;;;;;6.70;4.60;;;6.80;99.90;;;;;;8340716;28;20129;-84
2022/11/05 03:24:34;;;;;;;6.60;4.10;;;6.80;99.90;;;;;;8335763;28;20108;-84
2022/11/05 03:28:54;;;;;;;8.20;5.13;;;6.70;99.90;;;;;;8351635;28;20017;-84
2022/11/05 03:33:01;;;;;;;12.90;5.30;;;6.70;99.90;;;;;;8346785;28;20497;-84
2022/11/05 03:37:03;;;;;;;12.60;5.90;;;6.80;99.90;;;;;;8344392;28;20025;-84
2022/11/05 03:41:08;;;;;;;8.38;5.95;;;6.80;99.90;;;;;;8337011;28;20090;-84
2022/11/05 03:45:34;;;;;;;12.40;6.55;;;6.90;99.90;;;;;;8339175;28;20048;-84
2022/11/05 03:50:19;;;;;;;12.60;5.82;;;7.00;99.90;;;;;;8347532;28;20056;-84
2022/11/05 03:54:21;;;;;;;11.25;6.13;;;7.10;99.90;;;;;;8344299;28;20052;-85
2022/11/05 03:58:22;;;;;;;13.75;7.15;;;7.00;99.90;;;;;;8350352;28;20021;-84
2022/11/05 04:02:25;;;;;;;11.02;6.72;;;6.80;99.90;;;;;;8348965;28;20033;-84
2022/11/05 04:15:17;;;;;;;12.77;8.20;;;7.30;99.90;;;;;;8333514;28;20044;-84
2022/11/05 04:24:07;;;;;;;14.18;8.02;;;7.10;99.90;;;;;;8355471;28;20025;-83
2022/11/05 04:28:06;;;;;;;18.38;9.05;;;7.30;99.90;;;;;;8339325;28;20079;-84
2022/11/05 04:32:24;;;;;;;13.32;8.18;;;7.20;99.90;;;;;;8339434;28;20025;-84
2022/11/05 04:36:24;;;;;;;14.57;8.43;;;7.10;99.90;;;;;;8322501;28;1160612;-83
2022/11/05 04:40:25;;;;;;;15.10;8.73;;;7.10;99.90;;;;;;8352649;28;20716;-84
2022/11/05 04:44:26;;;;;;;13.10;7.90;;;7.10;99.90;;;;;;8348104;28;20104;-83
2022/11/05 04:48:26;;;;;;;12.23;8.23;;;7.10;99.90;;;;;;8356918;28;20120;-84
2022/11/05 04:52:27;;;;;;;11.32;7.30;;;7.20;99.90;;;;;;8344005;28;20025;-83
2022/11/05 04:56:27;;;;;;;10.82;7.75;;;7.30;99.90;;;;;;8352958;28;20025;-84
2022/11/05 05:00:28;;;;;;;10.05;7.13;;;7.30;99.90;;;;;;8350593;28;20033;-82
2022/11/05 05:04:28;;;;;;;11.68;7.95;;;7.30;99.90;;;;;;8350310;28;20017;-83
2022/11/05 05:08:29;;;;;;;10.75;7.30;;;7.40;99.90;;;;;;8353427;28;20025;-82
2022/11/05 05:12:33;;;;;;;10.48;6.82;;;7.30;99.90;;;;;;8357848;28;20025;-83
2022/11/05 05:16:37;;;;;;;10.73;7.15;;;7.70;99.90;;;;;;8350299;28;20083;-83
2022/11/05 05:24:59;;;;;;;10.35;6.57;;;7.10;99.90;;;;;;8371529;23;20443;-84
2022/11/05 05:29:12;;;;;;;14.75;7.18;;;7.10;99.90;;;;;;8344112;28;20052;-83
2022/11/05 05:33:13;;;;;;;8.40;5.93;;;7.20;99.90;;;;;;8332728;28;20025;-83
2022/11/05 05:37:28;;;;;;;8.63;5.90;;;7.30;99.90;;;;;;8346628;28;20091;-83
2022/11/05 05:41:29;;;;;;;7.53;5.38;;;7.30;99.90;;;;;;8339978;28;20437;-83
2022/11/05 05:45:29;;;;;;;8.30;6.00;;;7.60;99.90;;;;;;8348297;28;20025;-83
2022/11/05 05:49:30;;;;;;;8.25;5.70;;;7.10;99.90;;;;;;8354097;28;20025;-82
2022/11/05 05:53:31;;;;;;;8.90;5.03;;;7.10;99.90;;;;;;8341207;28;20026;-82
2022/11/05 05:57:42;;;;;;;10.23;5.78;;;7.20;99.90;;;;;;8346514;28;20037;-82
2022/11/05 06:01:43;;;;;;;8.52;5.35;;;7.30;99.90;;;;;;8396111;22;20051;-83
2022/11/05 06:05:43;;;;;;;8.88;5.78;;;7.20;99.90;;;;;;8392674;28;20033;-83
2022/11/05 06:09:44;;;;;;;7.07;5.40;;;7.10;99.90;;;;;;8385186;28;20020;-81
2022/11/05 06:13:44;;;;;;;8.63;5.60;;;7.10;99.90;;;;;;8378886;28;20056;-81
2022/11/05 06:17:45;;;;;;;9.68;5.25;;;7.30;99.90;;;;;;8386783;28;20387;-80
2022/11/05 06:21:46;;;;;;;6.63;4.90;;;7.30;99.90;;;;;;8382955;28;20184;-81
2022/11/05 06:25:46;;;;;;;6.70;4.82;;;7.20;99.90;;;;;;8369456;28;20029;-81
2022/11/05 06:29:47;;;;;;;6.80;4.97;;;7.40;99.90;;;;;;8383586;28;20052;-80
2022/11/05 06:33:47;;;;;;;5.80;4.18;;;7.50;99.90;;;;;;8367761;28;20032;-82
2022/11/05 06:37:48;;;;;;;8.50;5.32;;;7.50;99.90;;;;;;8362877;28;20037;-83
2022/11/05 06:41:49;;;;;;;8.70;5.20;;;7.50;99.90;;;;;;8361394;28;20481;-83
2022/11/05 06:45:49;;;;;;;7.05;5.10;;;7.40;99.90;;;;;;8370735;28;20032;-83
2022/11/05 06:49:50;;;;;;;7.38;4.75;;;7.30;99.90;;;;;;8358515;28;20029;-83
2022/11/05 06:53:50;;;;;;;7.43;4.72;;;7.20;99.90;;;;;;8367866;28;20078;-84
2022/11/05 06:57:51;;;;;;;7.07;5.05;;;7.20;99.90;;;;;;8388479;28;20036;-84
2022/11/05 07:01:52;;;;;;;7.57;5.15;;;7.30;99.90;;;;;;8372401;28;20450;-83
2022/11/05 07:05:53;;;;;;;9.88;4.65;;;7.10;99.90;;;;;;8370326;28;20096;-84
2022/11/05 07:09:53;;;;;;;6.38;5.05;;;7.10;99.90;;;;;;8384006;28;20473;-82
2022/11/05 07:13:54;;;;;;;6.32;4.47;;;7.00;99.90;;;;;;8378212;28;20036;-83
2022/11/05 07:17:58;;;;;;;6.45;4.57;;;7.30;99.90;;;;;;8385562;28;20036;-83
2022/11/05 07:21:59;;;;;;;6.13;4.15;;;7.50;99.90;;;;;;8388384;28;20044;-83
2022/11/05 07:26:00;;;;;;;6.93;4.30;;;7.60;99.90;;;;;;8390580;28;20025;-83
2022/11/05 07:30:00;;;;;;;5.03;3.28;;;8.30;99.90;;;;;;8389416;28;20029;-83
2022/11/05 07:34:01;;;;;;;3.17;1.58;;;8.20;99.90;;;;;;8388141;28;20087;-83
2022/11/05 07:38:02;;;;;;;6.10;2.30;;;8.20;99.90;;;;;;8388824;28;20515;-84
2022/11/05 07:42:02;;;;;;;2.95;2.00;;;8.00;99.90;;;;;;8387017;28;20060;-84
2022/11/05 07:46:03;;;;;;;2.42;1.85;;;8.00;99.90;;;;;;8382007;28;20101;-84
2022/11/05 07:50:04;;;;;;;2.95;2.35;;;7.80;99.90;;;;;;8390201;28;20039;-84
2022/11/05 07:54:05;;;;;;;3.63;2.53;;;7.80;99.90;;;;;;8386003;28;20024;-85
2022/11/05 07:58:05;;;;;;;2.88;2.03;;;7.70;99.90;;;;;;8378988;28;20039;-85
2022/11/05 08:02:09;;;;;;;3.80;2.60;;;7.70;99.90;;;;;;8402107;28;20507;-85
2022/11/05 08:06:09;;;;;;;4.88;2.72;;;7.60;99.90;;;;;;8381339;28;20020;-84
2022/11/05 08:10:10;;;;;;;3.25;2.55;;;7.90;99.90;;;;;;8381739;28;20448;-84
2022/11/05 08:14:10;;;;;;;4.32;2.20;;;7.90;99.90;;;;;;8376563;28;20527;-85
2022/11/05 08:18:14;;;;;;;3.03;2.22;;;7.60;99.90;;;;;;8372185;28;20043;-85
2022/11/05 08:22:14;;;;;;;3.60;2.33;;;7.80;99.90;;;;;;8380354;28;20063;-84
2022/11/05 08:26:15;;;;;;;2.47;1.83;;;7.80;99.90;;;;;;8378848;28;20017;-84
2022/11/05 08:30:15;;;;;;;3.70;2.38;;;7.70;99.90;;;;;;8379273;28;20027;-84
2022/11/05 08:34:16;;;;;;;3.60;2.38;;;7.60;99.90;;;;;;8381347;28;20024;-84
2022/11/05 08:38:18;;;;;;;3.50;2.05;;;7.80;99.90;;;;;;8362526;28;20033;-83
2022/11/05 08:42:18;;;;;;;3.85;2.00;;;7.80;99.90;;;;;;8361777;28;20492;-84
2022/11/05 08:46:19;;;;;;;4.50;2.60;;;7.70;99.90;;;;;;8367479;28;20020;-84
2022/11/05 08:50:20;;;;;;;2.85;2.22;;;7.80;99.90;;;;;;8376499;28;20055;-83
2022/11/05 08:54:20;;;;;;;2.53;2.00;;;7.90;99.90;;;;;;8387536;28;20584;-83
2022/11/05 08:58:21;;;;;;;4.20;2.53;;;8.00;99.90;;;;;;8390213;28;20031;-83
2022/11/05 09:02:28;;;;;;;4.60;3.17;;;8.20;99.90;;;;;;8390029;28;20028;-83
2022/11/05 09:06:28;;;;;;;3.92;2.95;;;8.30;99.90;;;;;;8374552;28;20044;-82
2022/11/05 09:10:29;;;;;;;3.55;2.95;;;8.40;99.90;;;;;;8363653;28;20048;-83
2022/11/05 09:14:30;;;;;;;3.90;3.08;;;8.80;99.90;;;;;;8387003;28;20028;-83
2022/11/05 09:18:30;;;;;;;5.10;2.90;;;9.20;99.90;;;;;;8385282;28;20024;-85
2022/11/05 09:22:31;;;;;;;3.88;2.67;;;9.50;99.90;;;;;;8370315;28;20033;-82
2022/11/05 09:26:32;;;;;;;3.15;2.47;;;9.60;99.90;;;;;;8383253;28;20025;-84
2022/11/05 09:30:32;;;;;;;4.20;2.75;;;9.70;99.90;;;;;;8385585;28;20025;-85
2022/11/05 09:34:33;;;;;;;2.42;2.05;;;9.90;99.90;;;;;;8373246;28;20036;-84
2022/11/05 09:38:34;;;;;;;2.08;1.77;;;10.00;99.90;;;;;;8373359;28;20021;-85
2022/11/05 09:42:40;;;;;;;1.90;1.50;;;10.10;99.90;;;;;;8369247;28;20036;-85
2022/11/05 09:46:53;;;;;;;1.63;1.02;;;10.20;99.90;;;;;;8369628;28;20033;-85
2022/11/05 09:50:54;;;;;;;0.90;0.88;;;10.10;99.90;;;;;;8376711;28;20032;-85
2022/11/05 09:54:56;;;;;;;0.93;0.73;;;10.10;99.90;;;;;;8383613;28;20029;-86
2022/11/05 09:59:14;;;;;;;1.75;0.82;;;10.10;99.90;;;;;;8377868;28;20440;-85
2022/11/05 10:03:26;;;;;;;0.75;0.70;;;10.40;99.90;;;;;;8368239;28;20025;-85
2022/11/05 10:07:30;;;;;;;1.48;1.02;;;10.80;99.90;;;;;;8386693;28;20017;-85
2022/11/05 10:11:50;;;;;;;1.08;0.90;;;11.20;99.90;;;;;;8382608;28;20074;-84
2022/11/05 10:16:29;;;;;;;1.95;1.00;;;11.30;99.90;;;;;;8388492;28;20032;-84
2022/11/05 10:25:23;;;;;;;1.17;1.00;;;11.60;99.90;;;;;;8358035;23;20052;-84
2022/11/05 10:29:29;;;;;;;0.88;0.75;;;12.10;99.90;;;;;;8341922;28;20101;-84
2022/11/05 10:33:44;;;;;;;1.00;0.60;;;12.10;99.90;;;;;;8320901;28;20033;-83
2022/11/05 10:38:06;;;;;;;0.90;0.70;;;11.50;99.90;;;;;;8323112;28;20080;-84
2022/11/05 10:43:04;;;;;;;1.35;0.98;;;10.90;99.90;;;;;;8327321;28;20033;-83
2022/11/05 10:47:48;;;;;;;0.90;0.80;;;10.50;99.90;;;;;;8264332;28;20429;-83
2022/11/05 10:52:10;;;;;;;0.60;0.60;;;10.40;99.90;;;;;;8290611;28;20040;-84
2022/11/05 10:56:37;;;;;;;1.00;0.85;;;10.40;99.90;;;;;;8318718;28;20501;-84
2022/11/05 11:00:37;;;;;;;0.70;0.65;;;10.50;99.90;;;;;;8313330;28;20025;-83
2022/11/05 11:04:39;;;;;;;1.40;0.98;;;10.70;99.90;;;;;;8324245;28;20025;-84
2022/11/05 11:08:44;;;;;;;1.55;0.77;;;10.90;99.90;;;;;;8318831;28;20390;-84
2022/11/05 11:12:58;;;;;;;0.90;0.63;;;11.10;99.90;;;;;;8316860;28;20037;-84
2022/11/05 11:17:23;;;;;;;0.80;0.60;;;11.80;99.90;;;;;;8313418;28;20390;-84
2022/11/05 11:21:25;;;;;;;0.65;0.57;;;12.00;99.90;;;;;;8309484;28;20030;-84
2022/11/05 11:25:36;;;;;;;1.00;0.70;;;11.90;99.90;;;;;;8288198;28;20411;-84
2022/11/05 11:29:40;;;;;;;1.20;0.50;;;11.60;99.90;;;;;;8322367;28;20030;-83
2022/11/05 11:34:06;;;;;;;0.63;0.60;;;11.70;99.90;;;;;;8321314;28;20177;-83
2022/11/05 11:38:15;;;;;;;0.80;0.52;;;11.50;99.90;;;;;;8311293;28;20033;-83
2022/11/05 11:42:31;;;;;;;0.60;0.55;;;11.60;99.90;;;;;;8314782;28;20045;-84
2022/11/05 11:46:34;;;;;;;0.93;0.77;;;10.80;99.90;;;;;;8313557;28;20033;-84
2022/11/05 11:50:41;;;;;;;0.77;0.60;;;11.50;99.90;;;;;;8332683;28;20031;-82
2022/11/05 11:54:42;;;;;;;0.80;0.80;;;11.10;99.90;;;;;;8326799;28;20367;-83
2022/11/05 11:58:51;;;;;;;1.30;0.80;;;10.90;99.90;;;;;;8328415;28;20029;-83
2022/11/05 12:02:58;;;;;;;1.00;0.73;;;10.70;99.90;;;;;;8314900;28;20025;-83
2022/11/05 12:07:29;;;;;;;1.75;0.80;;;10.70;99.90;;;;;;8306017;28;20022;-84
2022/11/05 12:11:42;;;;;;;1.15;0.98;;;10.40;99.90;;;;;;8329705;28;20052;-83
2022/11/05 12:15:51;;;;;;;1.40;1.10;;;10.60;99.90;;;;;;8312100;28;20414;-83
2022/11/05 12:19:58;;;;;;;1.55;0.93;;;10.60;99.90;;;;;;8323439;28;20191;-83
2022/11/05 12:24:43;;;;;;;1.20;0.98;;;10.60;99.90;;;;;;8315801;28;20033;-83
2022/11/05 12:29:10;;;;;;;1.20;1.00;;;10.80;99.90;;;;;;8323725;28;20228;-83
2022/11/05 12:33:36;;;;;;;1.50;1.33;;;10.70;99.90;;;;;;8323078;28;20074;-83
2022/11/05 12:37:49;;;;;;;2.35;1.40;;;10.60;99.90;;;;;;8323276;28;20041;-83
2022/11/05 12:42:18;;;;;;;1.85;1.30;;;10.50;99.90;;;;;;8327157;28;20032;-83
2022/11/05 12:46:37;;;;;;;3.22;1.60;;;10.50;99.90;;;;;;8324322;28;20021;-83
2022/11/05 12:50:54;;;;;;;3.28;1.50;;;10.40;99.90;;;;;;8315367;28;20018;-83
2022/11/05 12:55:21;;;;;;;2.00;1.55;;;10.10;99.90;;;;;;8312874;28;20064;-83
2022/11/05 12:59:36;;;;;;;2.00;1.67;;;9.90;99.90;;;;;;8322092;28;20076;-83
2022/11/05 13:03:48;;;;;;;2.53;1.73;;;10.00;99.90;;;;;;8318106;28;20045;-82
2022/11/05 13:08:33;;;;;;;2.10;1.50;;;10.00;99.90;;;;;;8330746;28;20025;-82
2022/11/05 13:12:38;;;;;;;2.47;1.90;;;9.70;99.90;;;;;;8321787;28;20041;-82
2022/11/05 13:16:45;;;;;;;2.55;1.92;;;9.40;99.90;;;;;;8329094;28;20520;-82
2022/11/05 13:20:49;;;;;;;2.67;1.48;;;9.20;99.90;;;;;;8328690;28;20393;-82
2022/11/05 13:25:16;;;;;;;2.33;1.65;;;9.10;99.90;;;;;;8329175;28;20037;-82
2022/11/05 13:29:42;;;;;;;2.10;1.60;;;9.30;99.90;;;;;;8311163;28;20049;-82
2022/11/05 13:33:45;;;;;;;3.03;1.85;;;9.20;99.90;;;;;;8327543;28;20032;-82
2022/11/05 13:42:30;;;;;;;3.45;2.72;;;9.30;99.90;;;;;;8330379;28;20080;-82
2022/11/05 13:46:45;;;;;;;3.85;2.67;;;9.60;99.90;;;;;;8326053;28;20014;-82
2022/11/05 13:51:08;;;;;;;4.75;2.40;;;9.70;99.90;;;;;;8328961;28;20026;-82
2022/11/05 13:55:36;;;;;;;4.15;2.67;;;9.70;99.90;;;;;;8329380;28;20379;-82
2022/11/05 13:59:52;;;;;;;3.92;2.70;;;9.60;99.90;;;;;;8325894;28;20064;-82
2022/11/05 14:03:54;;;;;;;5.18;2.72;;;9.60;99.90;;;;;;8329051;28;20109;-82
2022/11/05 14:08:01;;;;;;;3.60;2.67;;;9.40;99.90;;;;;;8331839;28;20024;-82
2022/11/05 14:12:03;;;;;;;3.83;2.75;;;9.30;99.90;;;;;;8333591;28;20048;-82
2022/11/05 14:16:15;;;;;;;4.40;2.80;;;9.20;99.90;;;;;;8332082;28;20411;-83
2022/11/05 14:20:31;;;;;;;3.58;2.47;;;9.10;99.90;;;;;;8334952;28;20021;-83
2022/11/05 14:24:43;;;;;;;3.40;2.42;;;9.10;99.90;;;;;;8329925;28;20029;-83
2022/11/05 14:29:03;;;;;;;8.23;4.55;;;9.00;99.90;;;;;;8339510;28;20030;-82
2022/11/05 14:33:35;;;;;;;5.32;4.03;;;9.10;99.90;;;;;;8337806;28;20029;-83
2022/11/05 14:37:40;;;;;;;5.47;3.10;;;8.90;99.90;;;;;;8337235;28;20716;-83
2022/11/05 14:42:01;;;;;;;3.50;2.50;;;9.00;99.90;;;;;;8339801;28;20024;-83
2022/11/05 14:46:07;;;;;;;3.17;2.63;;;9.10;99.90;;;;;;8332087;28;20079;-83
2022/11/05 14:50:21;;;;;;;4.22;2.75;;;9.20;99.90;;;;;;8341416;28;20626;-83
2022/11/05 14:54:25;;;;;;;4.93;3.22;;;9.20;99.90;;;;;;8340149;28;20516;-84
2022/11/05 14:58:29;;;;;;;5.32;3.63;;;9.10;99.90;;;;;;8340038;28;20045;-82
2022/11/05 15:02:37;;;;;;;6.60;3.60;;;8.90;99.90;;;;;;8321428;28;20021;-83
2022/11/05 15:06:37;;;;;;;5.00;3.63;;;8.80;99.90;;;;;;8321670;28;20030;-83
2022/11/05 15:10:39;;;;;;;6.18;3.67;;;8.80;99.90;;;;;;8331792;28;20028;-83
2022/11/05 15:14:51;;;;;;;4.32;3.30;;;8.70;99.90;;;;;;8337951;28;20030;-83
2022/11/05 15:18:54;;;;;;;5.15;3.60;;;8.70;99.90;;;;;;8333333;28;20037;-84
2022/11/05 15:22:59;;;;;;;6.47;4.30;;;8.70;99.90;;;;;;8329278;28;20289;-83
2022/11/05 15:27:34;;;;;;;5.63;3.88;;;8.50;99.90;;;;;;8342011;28;20021;-83
2022/11/05 15:31:42;;;;;;;5.00;3.78;;;8.50;99.90;;;;;;8353420;28;20017;-82
2022/11/05 15:35:42;;;;;;;5.93;3.45;;;8.40;99.90;;;;;;8337476;28;20088;-83
2022/11/05 15:39:45;;;;;;;5.07;3.00;;;8.50;99.90;;;;;;8329684;28;20033;-83
2022/11/05 15:43:47;;;;;;;4.43;2.88;;;8.50;99.90;;;;;;8324986;28;20075;-84
2022/11/05 15:47:51;;;;;;;4.35;2.83;;;8.30;99.90;;;;;;8330300;28;20034;-83
2022/11/05 15:51:51;;;;;;;5.18;3.60;;;8.30;99.90;;;;;;8325962;28;20500;-83
2022/11/05 15:55:57;;;;;;;4.35;2.85;;;8.10;99.90;;;;;;8331300;28;20025;-83
2022/11/05 16:00:02;;;;;;;3.45;2.38;;;7.90;99.90;;;;;;8319934;28;20037;-83
2022/11/05 16:04:14;;;;;;;3.85;2.70;;;7.80;99.90;;;;;;8323631;28;20033;-83
2022/11/05 16:08:25;;;;;;;3.60;2.65;;;7.60;99.90;;;;;;8331244;28;20022;-83
2022/11/05 16:12:35;;;;;;;4.15;2.75;;;7.60;99.90;;;;;;8312815;28;20053;-83
2022/11/05 16:16:36;;;;;;;3.83;2.20;;;7.40;99.90;;;;;;8315415;28;20030;-83
2022/11/05 16:20:37;;;;;;;4.53;2.75;;;7.30;99.90;;;;;;8318547;28;20057;-83
2022/11/05 16:24:38;;;;;;;3.65;2.60;;;7.50;99.90;;;;;;8320847;28;20021;-83
2022/11/05 16:28:38;;;;;;;3.80;2.47;;;7.40;99.90;;;;;;8307293;28;20040;-84
2022/11/05 16:32:39;;;;;;;4.05;2.55;;;7.50;99.90;;;;;;8314027;28;20564;-86
2022/11/05 16:36:39;;;;;;;5.00;3.10;;;7.50;99.90;;;;;;8315833;28;20032;-86
2022/11/05 16:40:40;;;;;;;3.47;2.38;;;7.30;99.90;;;;;;8328605;28;20079;-85
2022/11/05 16:44:41;;;;;;;4.00;2.47;;;7.10;99.90;;;;;;8305373;28;20025;-86
2022/11/05 16:48:41;;;;;;;4.32;2.70;;;6.70;99.90;;;;;;8307838;28;20033;-85
2022/11/05 16:52:44;;;;;;;5.90;3.53;;;6.40;99.90;;;;;;8319158;28;20029;-85
2022/11/05 16:56:46;;;;;;;5.82;3.55;;;6.20;99.90;;;;;;8325784;28;20017;-85
2022/11/05 17:00:48;;;;;;;6.63;2.97;;;5.80;99.90;;;;;;8322664;28;20017;-85
2022/11/05 17:04:49;;;;;;;4.22;2.97;;;5.60;99.90;;;;;;8325824;28;20150;-85
2022/11/05 17:08:49;;;;;;;4.50;3.08;;;5.50;99.90;;;;;;8323781;28;20371;-85
2022/11/05 17:12:50;;;;;;;6.00;3.00;;;5.40;99.90;;;;;;8325893;28;20053;-85
2022/11/05 17:16:51;;;;;;;4.78;3.20;;;5.40;99.90;;;;;;8326449;28;20105;-85
2022/11/05 17:20:53;;;;;;;5.13;3.47;;;5.40;99.90;;;;;;8320865;28;20026;-85
2022/11/05 17:24:54;;;;;;;5.85;3.60;;;5.50;99.90;;;;;;8320021;28;20121;-84
2022/11/05 17:28:54;;;;;;;7.25;3.45;;;5.70;99.90;;;;;;8326172;28;20021;-85
2022/11/05 17:32:55;;;;;;;7.30;4.15;;;5.70;99.90;;;;;;8323389;28;20021;-85
2022/11/05 17:36:56;;;;;;;7.68;5.00;;;5.80;99.90;;;;;;8321263;28;20036;-85
2022/11/05 17:40:56;;;;;;;13.48;6.38;;;5.70;99.90;;;;;;8321108;28;20021;-85
2022/11/05 17:44:57;;;;;;;14.77;8.30;;;5.70;99.90;;;;;;8326651;28;20025;-85
2022/11/05 17:48:57;;;;;;;23.23;11.73;;;5.90;99.90;;;;;;8320459;28;20013;-85
2022/11/05 17:52:58;;;;;;;17.00;8.95;;;5.80;99.90;;;;;;8326134;28;20033;-85
2022/11/05 17:56:58;;;;;;;12.27;7.65;;;5.60;99.90;;;;;;8329235;28;20449;-85
2022/11/05 18:00:59;;;;;;;14.02;8.35;;;5.70;99.90;;;;;;8325134;28;20118;-85
2022/11/05 18:04:59;;;;;;;11.80;8.25;;;5.60;99.90;;;;;;8330074;28;20025;-85
2022/11/05 18:09:00;;;;;;;10.70;7.22;;;5.50;99.90;;;;;;8325329;28;20025;-85
2022/11/05 18:13:00;;;;;;;10.85;6.82;;;5.40;99.90;;;;;;8322745;28;20389;-85
2022/11/05 18:17:01;;;;;;;11.50;6.40;;;5.20;99.90;;;;;;8323090;28;20440;-85
2022/11/05 18:21:01;;;;;;;9.50;5.55;;;5.20;99.90;;;;;;8331818;28;20068;-85
2022/11/05 18:25:04;;;;;;;9.80;5.93;;;5.00;99.90;;;;;;8331883;28;20041;-84
2022/11/05 18:29:05;;;;;;;10.38;5.82;;;4.80;99.90;;;;;;8326470;28;20159;-85
2022/11/05 18:33:06;;;;;;;12.73;6.82;;;4.80;99.90;;;;;;8329116;28;20397;-85
2022/11/05 18:37:06;;;;;;;13.32;7.85;;;4.70;99.90;;;;;;8331245;28;20084;-86
2022/11/05 18:41:07;;;;;;;10.60;6.50;;;4.70;99.90;;;;;;8326057;28;20109;-85
2022/11/05 18:45:08;;;;;;;12.55;6.38;;;4.80;99.90;;;;;;8330684;28;20026;-85
2022/11/05 18:49:10;;;;;;;14.75;7.05;;;4.70;99.90;;;;;;8331193;28;20022;-84
2022/11/05 18:53:11;;;;;;;8.57;5.47;;;4.70;99.90;;;;;;8331278;28;20025;-84
2022/11/05 18:57:11;;;;;;;10.55;5.85;;;4.70;99.90;;;;;;8331438;28;20405;-85
2022/11/05 19:01:14;;;;;;;10.57;6.38;;;4.40;99.90;;;;;;8321260;28;20072;-85
2022/11/05 19:05:15;;;;;;;10.02;6.10;;;4.20;99.90;;;;;;8330447;28;20021;-84
2022/11/05 19:09:16;;;;;;;11.18;5.45;;;4.30;99.90;;;;;;8330213;28;20052;-84
2022/11/05 19:13:16;;;;;;;11.23;5.95;;;4.20;99.90;;;;;;8331625;28;20022;-84
2022/11/05 19:17:17;;;;;;;11.10;6.15;;;4.00;99.90;;;;;;8346469;28;19998;-84
2022/11/05 19:21:23;;;;;;;11.85;6.53;;;3.90;99.90;;;;;;8334941;28;20065;-85
2022/11/05 19:25:23;;;;;;;9.80;5.45;;;3.90;99.90;;;;;;8330100;28;20036;-84
2022/11/05 19:29:24;;;;;;;8.77;5.03;;;3.70;99.90;;;;;;8324675;28;20025;-84
2022/11/05 19:33:25;;;;;;;9.70;5.05;;;3.50;99.90;;;;;;8326748;28;20017;-85
2022/11/05 19:37:25;;;;;;;9.90;5.65;;;3.40;99.90;;;;;;8329863;28;20029;-84
2022/11/05 19:41:27;;;;;;;10.45;5.55;;;3.50;99.90;;;;;;8329187;28;20053;-84
2022/11/05 19:45:27;;;;;;;10.90;5.63;;;3.50;99.90;;;;;;8328930;28;20026;-84
2022/11/05 19:49:28;;;;;;;10.43;5.57;;;3.70;99.90;;;;;;8326672;28;20389;-84
2022/11/05 19:53:28;;;;;;;11.80;5.97;;;3.50;99.90;;;;;;8324148;28;20013;-84
2022/11/05 19:57:29;;;;;;;11.98;5.80;;;3.20;99.90;;;;;;8328050;28;20022;-84
2022/11/05 20:01:30;;;;;;;7.50;3.95;;;3.10;99.90;;;;;;8315121;28;20021;-84
2022/11/05 20:05:34;;;;;;;7.90;4.82;;;2.90;99.90;;;;;;8328100;28;20108;-83
2022/11/05 20:09:34;;;;;;;9.57;5.18;;;3.20;99.90;;;;;;8329045;28;20032;-83
2022/11/05 20:13:35;;;;;;;8.23;5.40;;;3.60;99.90;;;;;;8328182;28;20375;-84
2022/11/05 20:17:38;;;;;;;12.30;5.60;;;3.50;99.90;;;;;;8327067;28;20033;-84
2022/11/05 20:21:38;;;;;;;14.00;5.13;;;3.20;99.90;;;;;;8328314;28;20167;-84
2022/11/05 20:25:41;;;;;;;24.33;6.32;;;3.00;99.90;;;;;;8327701;28;20215;-84
2022/11/05 20:29:41;;;;;;;10.05;5.10;;;2.50;99.90;;;;;;8327828;28;20034;-84
2022/11/05 20:33:43;;;;;;;10.90;5.38;;;2.30;99.90;;;;;;8321146;28;20025;-84
2022/11/05 20:37:44;;;;;;;12.82;7.15;;;2.10;99.90;;;;;;8327318;28;20021;-84
2022/11/05 20:41:44;;;;;;;21.17;10.38;;;1.90;99.90;;;;;;8328242;28;20021;-84
2022/11/05 20:45:45;;;;;;;23.00;9.32;;;1.90;99.90;;;;;;8323495;28;20121;-84
2022/11/05 20:49:45;;;;;;;33.90;8.90;;;2.10;99.90;;;;;;8326947;28;20037;-84
2022/11/05 20:53:46;;;;;;;29.80;7.53;;;2.20;99.90;;;;;;8326719;28;20025;-84
2022/11/05 20:57:47;;;;;;;13.13;6.50;;;2.20;99.90;;;;;;8318739;28;20028;-84
2022/11/05 21:01:49;;;;;;;13.65;6.40;;;1.90;99.90;;;;;;8317083;28;20107;-84
2022/11/05 21:06:03;;;;;;;18.65;7.80;;;1.90;99.90;;;;;;8326680;28;20025;-83
2022/11/05 21:10:05;;;;;;;10.80;5.18;;;1.90;99.90;;;;;;8327117;28;20444;-84
2022/11/05 21:14:05;;;;;;;12.98;6.25;;;1.70;99.90;;;;;;8326598;28;20676;-84
2022/11/05 21:18:06;;;;;;;12.07;6.45;;;1.60;99.90;;;;;;8327995;28;20116;-84
2022/11/05 21:22:06;;;;;;;13.77;6.30;;;1.60;99.90;;;;;;8326606;28;20056;-84
2022/11/05 21:26:10;;;;;;;15.40;8.07;;;1.80;99.90;;;;;;8327206;28;20029;-84
2022/11/05 21:30:11;;;;;;;16.02;7.47;;;1.90;99.90;;;;;;8331528;28;20097;-84
2022/11/05 21:34:12;;;;;;;12.15;6.70;;;1.90;99.90;;;;;;8335313;28;20385;-83
2022/11/05 21:38:15;;;;;;;17.15;7.20;;;1.80;99.90;;;;;;8325993;28;20040;-83
2022/11/05 21:42:15;;;;;;;14.70;6.88;;;1.70;99.90;;;;;;8325423;28;20026;-83
2022/11/05 21:46:16;;;;;;;13.85;6.18;;;1.90;99.90;;;;;;8327197;28;20496;-83
2022/11/05 21:50:16;;;;;;;12.65;6.50;;;1.90;99.90;;;;;;8322967;28;20053;-84
2022/11/05 22:02:58;;;;;;;10.73;5.30;;;1.40;99.90;;;;;;8318640;28;20127;-83
2022/11/05 22:06:59;;;;;;;9.52;5.13;;;1.80;99.90;;;;;;8325560;28;20024;-83
2022/11/05 22:11:03;;;;;;;9.57;5.55;;;1.60;99.90;;;;;;8325677;28;20025;-83
2022/11/05 22:15:03;;;;;;;10.20;5.43;;;1.70;99.90;;;;;;8325694;28;20073;-83
2022/11/05 22:19:04;;;;;;;13.43;5.22;;;1.60;99.90;;;;;;8325077;28;20538;-83
2022/11/05 22:23:04;;;;;;;11.93;5.50;;;1.80;99.90;;;;;;8320139;28;20056;-83
2022/11/05 22:27:08;;;;;;;9.15;4.93;;;1.80;99.90;;;;;;8324802;28;20079;-83
2022/11/05 22:31:13;;;;;;;9.65;5.07;;;1.60;99.90;;;;;;8322184;28;20033;-83